sensor_id;sensor_type;location;lat;lon;timestamp;P1;durP1;ratioP1;P2;durP2;ratioP2
6424;SDS011;12193;42.642;23.384;2023-10-13T00:02:00;8.80;;;5.30;;
6424;SDS011;12193;42.642;23.384;2023-10-13T00:04:31;8.40;;;5.40;;
6424;SDS011;12193;42.642;23.384;2023-10-13T04:08:46;10.73;;;7.20;;
6424;SDS011;12193;42.642;23.384;2023-10-13T04:11:38;9.70;;;6.00;;
6424;SDS011;12193;42.642;23.384;2023-10-13T04:14:25;13.10;;;6.07;;
6424;SDS011;12193;42.642;23.384;2023-10-13T04:17:07;8.90;;;5.20;;
6424;SDS011;12193;42.642;23.384;2023-10-13T04:19:39;11.77;;;6.03;;
6424;SDS011;12193;42.642;23.384;2023-10-13T04:22:30;11.07;;;5.80;;
6424;SDS011;12193;42.642;23.384;2023-10-13T04:25:28;9.10;;;5.33;;
6424;SDS011;12193;42.642;23.384;2023-10-13T04:28:01;7.63;;;5.50;;
6424;SDS011;12193;42.642;23.384;2023-10-13T04:30:43;10.00;;;5.70;;
6424;SDS011;12193;42.642;23.384;2023-10-13T04:33:25;8.60;;;5.50;;
6424;SDS011;12193;42.642;23.384;2023-10-13T04:36:10;10.50;;;5.90;;
6424;SDS011;12193;42.642;23.384;2023-10-13T04:38:43;9.50;;;5.77;;
6424;SDS011;12193;42.642;23.384;2023-10-13T04:41:26;7.63;;;4.73;;
6424;SDS011;12193;42.642;23.384;2023-10-13T04:44:04;10.97;;;4.90;;
6424;SDS011;12193;42.642;23.384;2023-10-13T04:46:51;7.40;;;4.83;;
6424;SDS011;12193;42.642;23.384;2023-10-13T04:49:38;11.33;;;6.10;;
6424;SDS011;12193;42.642;23.384;2023-10-13T04:52:18;12.47;;;6.13;;
6424;SDS011;12193;42.642;23.384;2023-10-13T04:55:00;9.87;;;6.00;;
6424;SDS011;12193;42.642;23.384;2023-10-13T04:57:45;9.73;;;6.10;;
6424;SDS011;12193;42.642;23.384;2023-10-13T05:00:19;11.13;;;6.47;;
6424;SDS011;12193;42.642;23.384;2023-10-13T05:03:07;12.83;;;6.90;;
6424;SDS011;12193;42.642;23.384;2023-10-13T05:05:48;12.13;;;6.03;;
6424;SDS011;12193;42.642;23.384;2023-10-13T05:08:30;11.47;;;6.43;;
6424;SDS011;12193;42.642;23.384;2023-10-13T05:11:12;13.20;;;7.23;;
6424;SDS011;12193;42.642;23.384;2023-10-13T05:13:58;14.73;;;7.53;;
6424;SDS011;12193;42.642;23.384;2023-10-13T05:16:40;15.33;;;7.23;;
6424;SDS011;12193;42.642;23.384;2023-10-13T05:19:27;15.63;;;7.90;;
6424;SDS011;12193;42.642;23.384;2023-10-13T05:22:09;14.87;;;7.27;;
6424;SDS011;12193;42.642;23.384;2023-10-13T05:24:50;14.67;;;8.17;;
6424;SDS011;12193;42.642;23.384;2023-10-13T05:27:32;11.30;;;6.73;;
6424;SDS011;12193;42.642;23.384;2023-10-13T05:30:16;10.23;;;6.60;;
6424;SDS011;12193;42.642;23.384;2023-10-13T05:32:58;12.20;;;6.43;;
6424;SDS011;12193;42.642;23.384;2023-10-13T05:35:40;12.67;;;6.77;;
6424;SDS011;12193;42.642;23.384;2023-10-13T05:38:21;13.20;;;7.27;;
6424;SDS011;12193;42.642;23.384;2023-10-13T05:41:03;13.70;;;7.50;;
6424;SDS011;12193;42.642;23.384;2023-10-13T05:43:58;12.87;;;8.67;;
6424;SDS011;12193;42.642;23.384;2023-10-13T05:46:42;25.23;;;13.07;;
6424;SDS011;12193;42.642;23.384;2023-10-13T05:49:27;24.20;;;14.77;;
6424;SDS011;12193;42.642;23.384;2023-10-13T05:52:09;21.17;;;13.57;;
6424;SDS011;12193;42.642;23.384;2023-10-13T05:55:07;20.53;;;10.57;;
6424;SDS011;12193;42.642;23.384;2023-10-13T05:57:49;15.07;;;8.17;;
6424;SDS011;12193;42.642;23.384;2023-10-13T06:00:31;14.27;;;7.93;;
6424;SDS011;12193;42.642;23.384;2023-10-13T06:03:27;14.67;;;8.43;;
6424;SDS011;12193;42.642;23.384;2023-10-13T06:06:09;16.10;;;8.13;;
6424;SDS011;12193;42.642;23.384;2023-10-13T06:08:50;18.57;;;8.23;;
6424;SDS011;12193;42.642;23.384;2023-10-13T06:11:32;21.20;;;8.13;;
6424;SDS011;12193;42.642;23.384;2023-10-13T06:14:14;15.90;;;8.57;;
6424;SDS011;12193;42.642;23.384;2023-10-13T06:16:55;17.27;;;8.37;;
6424;SDS011;12193;42.642;23.384;2023-10-13T06:19:40;13.53;;;7.30;;
6424;SDS011;12193;42.642;23.384;2023-10-13T06:22:22;14.33;;;7.73;;
6424;SDS011;12193;42.642;23.384;2023-10-13T06:25:03;13.20;;;7.90;;
6424;SDS011;12193;42.642;23.384;2023-10-13T06:27:46;16.20;;;7.70;;
6424;SDS011;12193;42.642;23.384;2023-10-13T06:30:27;16.77;;;8.73;;
6424;SDS011;12193;42.642;23.384;2023-10-13T06:32:59;19.37;;;7.73;;
6424;SDS011;12193;42.642;23.384;2023-10-13T06:35:32;15.17;;;8.47;;
6424;SDS011;12193;42.642;23.384;2023-10-13T06:38:05;14.83;;;8.80;;
6424;SDS011;12193;42.642;23.384;2023-10-13T06:40:46;14.57;;;8.10;;
6424;SDS011;12193;42.642;23.384;2023-10-13T06:43:16;20.80;;;8.30;;
6424;SDS011;12193;42.642;23.384;2023-10-13T06:45:47;13.17;;;7.97;;
6424;SDS011;12193;42.642;23.384;2023-10-13T06:48:23;20.23;;;8.37;;
6424;SDS011;12193;42.642;23.384;2023-10-13T06:50:55;17.53;;;8.53;;
6424;SDS011;12193;42.642;23.384;2023-10-13T06:53:30;20.13;;;9.40;;
6424;SDS011;12193;42.642;23.384;2023-10-13T06:56:05;18.87;;;9.20;;
6424;SDS011;12193;42.642;23.384;2023-10-13T06:58:37;20.13;;;10.37;;
6424;SDS011;12193;42.642;23.384;2023-10-13T07:01:09;19.90;;;9.80;;
6424;SDS011;12193;42.642;23.384;2023-10-13T07:03:41;22.33;;;10.10;;
6424;SDS011;12193;42.642;23.384;2023-10-13T07:06:17;20.13;;;10.93;;
6424;SDS011;12193;42.642;23.384;2023-10-13T07:08:46;18.37;;;9.70;;
6424;SDS011;12193;42.642;23.384;2023-10-13T07:11:18;19.63;;;10.10;;
6424;SDS011;12193;42.642;23.384;2023-10-13T07:13:59;20.90;;;9.97;;
6424;SDS011;12193;42.642;23.384;2023-10-13T07:16:36;25.27;;;10.17;;
6424;SDS011;12193;42.642;23.384;2023-10-13T07:19:15;22.57;;;10.37;;
6424;SDS011;12193;42.642;23.384;2023-10-13T07:21:47;19.40;;;9.87;;
6424;SDS011;12193;42.642;23.384;2023-10-13T07:24:24;16.13;;;9.77;;
6424;SDS011;12193;42.642;23.384;2023-10-13T07:26:57;17.53;;;9.13;;
6424;SDS011;12193;42.642;23.384;2023-10-13T07:29:29;14.87;;;8.90;;
6424;SDS011;12193;42.642;23.384;2023-10-13T07:32:01;17.27;;;9.37;;
6424;SDS011;12193;42.642;23.384;2023-10-13T07:34:38;21.00;;;9.40;;
6424;SDS011;12193;42.642;23.384;2023-10-13T07:37:10;15.93;;;8.43;;
6424;SDS011;12193;42.642;23.384;2023-10-13T07:39:42;17.20;;;8.40;;
6424;SDS011;12193;42.642;23.384;2023-10-13T07:42:15;14.13;;;8.43;;
6424;SDS011;12193;42.642;23.384;2023-10-13T07:44:45;18.93;;;8.50;;
6424;SDS011;12193;42.642;23.384;2023-10-13T07:47:14;16.57;;;8.90;;
6424;SDS011;12193;42.642;23.384;2023-10-13T07:49:46;16.53;;;8.30;;
6424;SDS011;12193;42.642;23.384;2023-10-13T07:52:19;20.70;;;8.83;;
6424;SDS011;12193;42.642;23.384;2023-10-13T07:55:02;13.93;;;8.37;;
6424;SDS011;12193;42.642;23.384;2023-10-13T07:57:41;14.63;;;8.50;;
6424;SDS011;12193;42.642;23.384;2023-10-13T08:00:23;19.50;;;9.40;;
6424;SDS011;12193;42.642;23.384;2023-10-13T08:03:12;13.73;;;8.57;;
6424;SDS011;12193;42.642;23.384;2023-10-13T08:05:58;17.10;;;8.53;;
6424;SDS011;12193;42.642;23.384;2023-10-13T08:08:33;19.93;;;8.93;;
6424;SDS011;12193;42.642;23.384;2023-10-13T08:11:10;20.67;;;9.20;;
6424;SDS011;12193;42.642;23.384;2023-10-13T08:13:50;20.93;;;10.10;;
6424;SDS011;12193;42.642;23.384;2023-10-13T08:16:25;17.17;;;9.57;;
6424;SDS011;12193;42.642;23.384;2023-10-13T08:19:11;17.00;;;9.43;;
6424;SDS011;12193;42.642;23.384;2023-10-13T08:21:43;16.60;;;9.60;;
6424;SDS011;12193;42.642;23.384;2023-10-13T08:24:20;20.30;;;10.23;;
6424;SDS011;12193;42.642;23.384;2023-10-13T08:26:55;22.90;;;11.27;;
6424;SDS011;12193;42.642;23.384;2023-10-13T08:29:37;21.77;;;10.43;;
6424;SDS011;12193;42.642;23.384;2023-10-13T08:32:42;21.90;;;11.53;;
6424;SDS011;12193;42.642;23.384;2023-10-13T08:35:20;25.13;;;12.10;;
6424;SDS011;12193;42.642;23.384;2023-10-13T08:38:00;24.70;;;11.80;;
6424;SDS011;12193;42.642;23.384;2023-10-13T08:40:46;24.43;;;12.17;;
6424;SDS011;12193;42.642;23.384;2023-10-13T08:43:37;25.37;;;11.77;;
6424;SDS011;12193;42.642;23.384;2023-10-13T08:46:16;22.13;;;11.87;;
6424;SDS011;12193;42.642;23.384;2023-10-13T08:48:57;23.50;;;13.60;;
6424;SDS011;12193;42.642;23.384;2023-10-13T08:51:41;27.10;;;12.33;;
6424;SDS011;12193;42.642;23.384;2023-10-13T08:54:16;30.43;;;13.47;;
6424;SDS011;12193;42.642;23.384;2023-10-13T08:57:02;24.53;;;12.10;;
6424;SDS011;12193;42.642;23.384;2023-10-13T08:59:46;22.50;;;11.60;;
6424;SDS011;12193;42.642;23.384;2023-10-13T09:02:29;25.17;;;11.40;;
6424;SDS011;12193;42.642;23.384;2023-10-13T09:05:10;24.20;;;11.67;;
6424;SDS011;12193;42.642;23.384;2023-10-13T09:07:52;22.97;;;12.27;;
6424;SDS011;12193;42.642;23.384;2023-10-13T09:10:33;26.17;;;11.87;;
6424;SDS011;12193;42.642;23.384;2023-10-13T09:13:12;27.00;;;12.90;;
6424;SDS011;12193;42.642;23.384;2023-10-13T09:15:46;22.13;;;11.50;;
6424;SDS011;12193;42.642;23.384;2023-10-13T09:18:25;21.97;;;11.67;;
6424;SDS011;12193;42.642;23.384;2023-10-13T09:21:07;26.40;;;11.80;;
6424;SDS011;12193;42.642;23.384;2023-10-13T09:23:55;20.93;;;11.23;;
6424;SDS011;12193;42.642;23.384;2023-10-13T09:26:43;21.90;;;10.90;;
6424;SDS011;12193;42.642;23.384;2023-10-13T09:29:18;21.27;;;11.00;;
6424;SDS011;12193;42.642;23.384;2023-10-13T09:31:57;25.63;;;11.57;;
6424;SDS011;12193;42.642;23.384;2023-10-13T09:34:28;23.13;;;12.70;;
6424;SDS011;12193;42.642;23.384;2023-10-13T09:36:57;24.40;;;12.13;;
6424;SDS011;12193;42.642;23.384;2023-10-13T09:39:29;24.87;;;12.07;;
6424;SDS011;12193;42.642;23.384;2023-10-13T09:41:56;25.13;;;12.63;;
6424;SDS011;12193;42.642;23.384;2023-10-13T09:44:28;22.30;;;11.57;;
6424;SDS011;12193;42.642;23.384;2023-10-13T09:46:57;25.57;;;12.17;;
6424;SDS011;12193;42.642;23.384;2023-10-13T09:49:34;23.40;;;11.77;;
6424;SDS011;12193;42.642;23.384;2023-10-13T09:52:12;25.50;;;11.60;;
6424;SDS011;12193;42.642;23.384;2023-10-13T09:54:51;23.10;;;11.50;;
6424;SDS011;12193;42.642;23.384;2023-10-13T09:57:31;23.47;;;11.57;;
6424;SDS011;12193;42.642;23.384;2023-10-13T10:00:12;21.03;;;11.57;;
6424;SDS011;12193;42.642;23.384;2023-10-13T10:03:10;20.50;;;10.93;;
6424;SDS011;12193;42.642;23.384;2023-10-13T10:06:05;19.63;;;10.33;;
6424;SDS011;12193;42.642;23.384;2023-10-13T10:08:34;19.63;;;10.93;;
6424;SDS011;12193;42.642;23.384;2023-10-13T10:11:07;25.13;;;11.10;;
6424;SDS011;12193;42.642;23.384;2023-10-13T10:13:52;24.10;;;10.47;;
6424;SDS011;12193;42.642;23.384;2023-10-13T10:16:34;22.73;;;10.43;;
6424;SDS011;12193;42.642;23.384;2023-10-13T10:19:12;19.70;;;10.47;;
6424;SDS011;12193;42.642;23.384;2023-10-13T10:21:41;19.53;;;9.77;;
6424;SDS011;12193;42.642;23.384;2023-10-13T10:24:14;19.83;;;9.37;;
6424;SDS011;12193;42.642;23.384;2023-10-13T10:26:50;15.47;;;9.07;;
6424;SDS011;12193;42.642;23.384;2023-10-13T10:29:18;16.87;;;9.50;;
6424;SDS011;12193;42.642;23.384;2023-10-13T10:31:50;21.40;;;9.90;;
6424;SDS011;12193;42.642;23.384;2023-10-13T10:34:19;25.30;;;10.30;;
6424;SDS011;12193;42.642;23.384;2023-10-13T10:36:53;20.23;;;9.30;;
6424;SDS011;12193;42.642;23.384;2023-10-13T10:39:32;14.48;;;9.07;;
6424;SDS011;12193;42.642;23.384;2023-10-13T10:42:11;19.75;;;8.82;;
6424;SDS011;12193;42.642;23.384;2023-10-13T10:44:49;11.02;;;6.22;;
6424;SDS011;12193;42.642;23.384;2023-10-13T10:47:23;11.20;;;6.30;;
6424;SDS011;12193;42.642;23.384;2023-10-13T10:50:04;18.90;;;9.23;;
6424;SDS011;12193;42.642;23.384;2023-10-13T10:52:45;12.10;;;6.68;;
6424;SDS011;12193;42.642;23.384;2023-10-13T10:55:19;12.38;;;6.25;;
6424;SDS011;12193;42.642;23.384;2023-10-13T10:57:58;8.30;;;4.40;;
6424;SDS011;12193;42.642;23.384;2023-10-13T11:00:27;9.32;;;4.68;;
6424;SDS011;12193;42.642;23.384;2023-10-13T11:03:10;8.73;;;4.88;;
6424;SDS011;12193;42.642;23.384;2023-10-13T11:05:42;12.23;;;5.00;;
6424;SDS011;12193;42.642;23.384;2023-10-13T11:08:22;11.43;;;5.47;;
6424;SDS011;12193;42.642;23.384;2023-10-13T11:10:57;10.07;;;4.50;;
6424;SDS011;12193;42.642;23.384;2023-10-13T11:13:26;7.13;;;4.40;;
6424;SDS011;12193;42.642;23.384;2023-10-13T11:15:57;9.40;;;4.73;;
6424;SDS011;12193;42.642;23.384;2023-10-13T11:18:32;10.60;;;5.00;;
6424;SDS011;12193;42.642;23.384;2023-10-13T11:21:06;7.80;;;4.57;;
6424;SDS011;12193;42.642;23.384;2023-10-13T11:23:37;9.80;;;4.80;;
6424;SDS011;12193;42.642;23.384;2023-10-13T11:26:07;8.95;;;4.55;;
6424;SDS011;12193;42.642;23.384;2023-10-13T11:28:37;8.20;;;4.18;;
6424;SDS011;12193;42.642;23.384;2023-10-13T11:31:14;7.30;;;3.90;;
6424;SDS011;12193;42.642;23.384;2023-10-13T11:33:47;12.90;;;4.93;;
6424;SDS011;12193;42.642;23.384;2023-10-13T11:36:21;12.32;;;5.88;;
6424;SDS011;12193;42.642;23.384;2023-10-13T11:38:57;10.18;;;4.57;;
6424;SDS011;12193;42.642;23.384;2023-10-13T11:41:27;7.78;;;3.95;;
6424;SDS011;12193;42.642;23.384;2023-10-13T11:43:59;9.05;;;3.67;;
6424;SDS011;12193;42.642;23.384;2023-10-13T11:46:39;6.95;;;3.40;;
6424;SDS011;12193;42.642;23.384;2023-10-13T11:49:23;7.00;;;3.60;;
6424;SDS011;12193;42.642;23.384;2023-10-13T11:52:03;4.63;;;3.20;;
6424;SDS011;12193;42.642;23.384;2023-10-13T11:54:44;8.30;;;3.45;;
6424;SDS011;12193;42.642;23.384;2023-10-13T11:57:14;6.47;;;3.60;;
6424;SDS011;12193;42.642;23.384;2023-10-13T11:59:45;6.70;;;3.97;;
6424;SDS011;12193;42.642;23.384;2023-10-13T12:02:22;8.80;;;4.25;;
6424;SDS011;12193;42.642;23.384;2023-10-13T12:05:07;7.78;;;3.90;;
6424;SDS011;12193;42.642;23.384;2023-10-13T12:07:43;4.72;;;3.42;;
6424;SDS011;12193;42.642;23.384;2023-10-13T12:10:17;10.90;;;3.83;;
6424;SDS011;12193;42.642;23.384;2023-10-13T12:13:15;7.85;;;3.65;;
6424;SDS011;12193;42.642;23.384;2023-10-13T12:15:45;6.15;;;3.55;;
6424;SDS011;12193;42.642;23.384;2023-10-13T12:18:18;6.75;;;3.28;;
6424;SDS011;12193;42.642;23.384;2023-10-13T12:20:51;8.77;;;3.80;;
6424;SDS011;12193;42.642;23.384;2023-10-13T12:23:23;6.95;;;3.50;;
6424;SDS011;12193;42.642;23.384;2023-10-13T12:25:57;5.63;;;3.67;;
6424;SDS011;12193;42.642;23.384;2023-10-13T12:28:25;6.20;;;3.85;;
6424;SDS011;12193;42.642;23.384;2023-10-13T12:31:02;7.57;;;3.47;;
6424;SDS011;12193;42.642;23.384;2023-10-13T12:33:34;5.88;;;3.40;;
6424;SDS011;12193;42.642;23.384;2023-10-13T12:36:09;5.63;;;3.40;;
6424;SDS011;12193;42.642;23.384;2023-10-13T12:38:41;8.73;;;3.77;;
6424;SDS011;12193;42.642;23.384;2023-10-13T12:41:27;6.20;;;3.40;;
6424;SDS011;12193;42.642;23.384;2023-10-13T12:44:08;6.07;;;3.53;;
6424;SDS011;12193;42.642;23.384;2023-10-13T12:46:50;5.67;;;3.53;;
6424;SDS011;12193;42.642;23.384;2023-10-13T12:49:32;7.60;;;3.37;;
6424;SDS011;12193;42.642;23.384;2023-10-13T12:52:16;6.83;;;3.47;;
6424;SDS011;12193;42.642;23.384;2023-10-13T12:54:51;7.00;;;3.20;;
6424;SDS011;12193;42.642;23.384;2023-10-13T12:57:32;5.90;;;3.10;;
6424;SDS011;12193;42.642;23.384;2023-10-13T13:00:10;7.70;;;3.33;;
6424;SDS011;12193;42.642;23.384;2023-10-13T13:02:51;7.27;;;3.30;;
6424;SDS011;12193;42.642;23.384;2023-10-13T13:05:22;7.90;;;3.50;;
6424;SDS011;12193;42.642;23.384;2023-10-13T13:07:57;6.63;;;3.50;;
6424;SDS011;12193;42.642;23.384;2023-10-13T13:10:26;8.37;;;3.87;;
6424;SDS011;12193;42.642;23.384;2023-10-13T13:13:03;6.47;;;3.43;;
6424;SDS011;12193;42.642;23.384;2023-10-13T13:15:33;8.63;;;3.47;;
6424;SDS011;12193;42.642;23.384;2023-10-13T13:18:02;6.27;;;3.53;;
6424;SDS011;12193;42.642;23.384;2023-10-13T13:20:38;6.63;;;3.40;;
6424;SDS011;12193;42.642;23.384;2023-10-13T13:23:21;10.17;;;3.87;;
6424;SDS011;12193;42.642;23.384;2023-10-13T13:25:51;7.77;;;3.30;;
6424;SDS011;12193;42.642;23.384;2023-10-13T13:28:22;9.37;;;3.60;;
6424;SDS011;12193;42.642;23.384;2023-10-13T13:30:54;7.17;;;3.53;;
6424;SDS011;12193;42.642;23.384;2023-10-13T13:33:24;8.40;;;3.60;;
6424;SDS011;12193;42.642;23.384;2023-10-13T13:35:59;9.17;;;3.30;;
6424;SDS011;12193;42.642;23.384;2023-10-13T13:38:32;7.87;;;3.43;;
6424;SDS011;12193;42.642;23.384;2023-10-13T13:41:02;8.40;;;4.00;;
6424;SDS011;12193;42.642;23.384;2023-10-13T13:43:35;7.53;;;3.50;;
6424;SDS011;12193;42.642;23.384;2023-10-13T13:46:16;8.93;;;4.13;;
6424;SDS011;12193;42.642;23.384;2023-10-13T13:48:50;7.47;;;3.70;;
6424;SDS011;12193;42.642;23.384;2023-10-13T13:51:24;9.00;;;3.60;;
6424;SDS011;12193;42.642;23.384;2023-10-13T13:53:58;9.40;;;3.23;;
6424;SDS011;12193;42.642;23.384;2023-10-13T13:56:32;7.30;;;3.23;;
6424;SDS011;12193;42.642;23.384;2023-10-13T13:59:04;7.13;;;3.40;;
6424;SDS011;12193;42.642;23.384;2023-10-13T14:01:35;9.83;;;3.70;;
6424;SDS011;12193;42.642;23.384;2023-10-13T14:04:06;6.53;;;3.67;;
6424;SDS011;12193;42.642;23.384;2023-10-13T14:06:35;5.43;;;3.60;;
6424;SDS011;12193;42.642;23.384;2023-10-13T14:09:07;7.07;;;3.87;;
6424;SDS011;12193;42.642;23.384;2023-10-13T14:11:58;9.23;;;3.90;;
6424;SDS011;12193;42.642;23.384;2023-10-13T14:14:40;8.10;;;4.03;;
6424;SDS011;12193;42.642;23.384;2023-10-13T14:17:15;6.27;;;3.80;;
6424;SDS011;12193;42.642;23.384;2023-10-13T14:19:44;11.20;;;3.47;;
6424;SDS011;12193;42.642;23.384;2023-10-13T14:22:13;9.63;;;4.33;;
6424;SDS011;12193;42.642;23.384;2023-10-13T14:24:45;7.37;;;3.60;;
6424;SDS011;12193;42.642;23.384;2023-10-13T14:27:20;8.60;;;4.10;;
6424;SDS011;12193;42.642;23.384;2023-10-13T14:29:51;9.43;;;4.00;;
6424;SDS011;12193;42.642;23.384;2023-10-13T14:32:23;8.83;;;3.87;;
6424;SDS011;12193;42.642;23.384;2023-10-13T14:34:53;9.30;;;4.30;;
6424;SDS011;12193;42.642;23.384;2023-10-13T14:37:23;9.00;;;4.03;;
6424;SDS011;12193;42.642;23.384;2023-10-13T14:39:59;6.27;;;3.90;;
6424;SDS011;12193;42.642;23.384;2023-10-13T14:42:28;10.73;;;4.00;;
6424;SDS011;12193;42.642;23.384;2023-10-13T14:45:01;8.73;;;3.73;;
6424;SDS011;12193;42.642;23.384;2023-10-13T14:47:38;7.13;;;3.60;;
6424;SDS011;12193;42.642;23.384;2023-10-13T14:50:08;9.70;;;4.23;;
6424;SDS011;12193;42.642;23.384;2023-10-13T14:52:45;14.20;;;5.03;;
6424;SDS011;12193;42.642;23.384;2023-10-13T14:55:17;8.63;;;4.20;;
6424;SDS011;12193;42.642;23.384;2023-10-13T14:58:04;10.13;;;4.30;;
6424;SDS011;12193;42.642;23.384;2023-10-13T15:00:33;7.30;;;3.87;;
6424;SDS011;12193;42.642;23.384;2023-10-13T15:03:03;10.40;;;3.80;;
6424;SDS011;12193;42.642;23.384;2023-10-13T15:05:37;10.53;;;4.27;;
6424;SDS011;12193;42.642;23.384;2023-10-13T15:08:09;9.13;;;4.10;;
6424;SDS011;12193;42.642;23.384;2023-10-13T15:10:40;10.53;;;4.07;;
6424;SDS011;12193;42.642;23.384;2023-10-13T15:13:10;11.07;;;3.90;;
6424;SDS011;12193;42.642;23.384;2023-10-13T15:15:39;10.07;;;4.20;;
6424;SDS011;12193;42.642;23.384;2023-10-13T15:18:09;6.63;;;3.80;;
6424;SDS011;12193;42.642;23.384;2023-10-13T15:20:41;13.07;;;6.23;;
6424;SDS011;12193;42.642;23.384;2023-10-13T15:23:11;7.53;;;4.80;;
6424;SDS011;12193;42.642;23.384;2023-10-13T15:25:51;10.07;;;4.73;;
6424;SDS011;12193;42.642;23.384;2023-10-13T15:28:20;16.47;;;4.93;;
6424;SDS011;12193;42.642;23.384;2023-10-13T15:30:56;13.60;;;4.60;;
6424;SDS011;12193;42.642;23.384;2023-10-13T15:33:36;13.47;;;4.40;;
6424;SDS011;12193;42.642;23.384;2023-10-13T15:36:09;12.83;;;4.80;;
6424;SDS011;12193;42.642;23.384;2023-10-13T15:38:38;9.23;;;4.40;;
6424;SDS011;12193;42.642;23.384;2023-10-13T15:41:10;8.17;;;4.23;;
6424;SDS011;12193;42.642;23.384;2023-10-13T15:43:39;11.43;;;4.67;;
6424;SDS011;12193;42.642;23.384;2023-10-13T15:46:15;12.73;;;4.43;;
6424;SDS011;12193;42.642;23.384;2023-10-13T15:48:46;10.07;;;4.20;;
6424;SDS011;12193;42.642;23.384;2023-10-13T15:51:16;11.13;;;4.43;;
6424;SDS011;12193;42.642;23.384;2023-10-13T15:53:45;7.90;;;3.87;;
6424;SDS011;12193;42.642;23.384;2023-10-13T15:56:20;6.93;;;3.60;;
6424;SDS011;12193;42.642;23.384;2023-10-13T15:58:49;12.87;;;3.70;;
6424;SDS011;12193;42.642;23.384;2023-10-13T16:01:18;7.27;;;3.50;;
6424;SDS011;12193;42.642;23.384;2023-10-13T16:03:49;7.00;;;3.10;;
6424;SDS011;12193;42.642;23.384;2023-10-13T16:06:18;12.00;;;3.93;;
6424;SDS011;12193;42.642;23.384;2023-10-13T16:08:51;7.00;;;3.30;;
6424;SDS011;12193;42.642;23.384;2023-10-13T16:11:23;9.07;;;2.77;;
6424;SDS011;12193;42.642;23.384;2023-10-13T16:13:53;10.80;;;5.07;;
6424;SDS011;12193;42.642;23.384;2023-10-13T16:16:22;8.87;;;3.73;;
6424;SDS011;12193;42.642;23.384;2023-10-13T16:18:53;12.53;;;3.53;;
6424;SDS011;12193;42.642;23.384;2023-10-13T16:21:22;7.50;;;3.47;;
6424;SDS011;12193;42.642;23.384;2023-10-13T16:23:51;6.50;;;3.50;;
6424;SDS011;12193;42.642;23.384;2023-10-13T16:26:20;9.83;;;3.60;;
6424;SDS011;12193;42.642;23.384;2023-10-13T16:28:53;8.47;;;3.73;;
6424;SDS011;12193;42.642;23.384;2023-10-13T16:31:23;4.97;;;3.27;;
6424;SDS011;12193;42.642;23.384;2023-10-13T16:33:54;9.47;;;3.60;;
6424;SDS011;12193;42.642;23.384;2023-10-13T16:36:24;9.53;;;3.27;;
6424;SDS011;12193;42.642;23.384;2023-10-13T16:38:58;9.27;;;3.23;;
6424;SDS011;12193;42.642;23.384;2023-10-13T16:41:29;8.43;;;3.70;;
6424;SDS011;12193;42.642;23.384;2023-10-13T16:44:01;10.17;;;3.70;;
6424;SDS011;12193;42.642;23.384;2023-10-13T16:46:35;7.73;;;4.30;;
6424;SDS011;12193;42.642;23.384;2023-10-13T16:49:06;7.63;;;4.00;;
6424;SDS011;12193;42.642;23.384;2023-10-13T16:51:36;5.53;;;3.23;;
6424;SDS011;12193;42.642;23.384;2023-10-13T16:54:06;5.67;;;3.17;;
6424;SDS011;12193;42.642;23.384;2023-10-13T16:56:36;7.83;;;3.20;;
6424;SDS011;12193;42.642;23.384;2023-10-13T16:59:07;8.83;;;3.73;;
6424;SDS011;12193;42.642;23.384;2023-10-13T17:01:37;27.43;;;13.93;;
6424;SDS011;12193;42.642;23.384;2023-10-13T17:04:06;8.30;;;3.50;;
6424;SDS011;12193;42.642;23.384;2023-10-13T17:06:40;11.53;;;4.40;;
6424;SDS011;12193;42.642;23.384;2023-10-13T17:09:09;14.50;;;4.33;;
6424;SDS011;12193;42.642;23.384;2023-10-13T17:11:38;12.40;;;4.73;;
6424;SDS011;12193;42.642;23.384;2023-10-13T17:14:11;10.90;;;4.20;;
6424;SDS011;12193;42.642;23.384;2023-10-13T17:16:41;9.10;;;3.90;;
6424;SDS011;12193;42.642;23.384;2023-10-13T17:19:10;9.43;;;3.97;;
6424;SDS011;12193;42.642;23.384;2023-10-13T17:21:40;10.93;;;4.13;;
6424;SDS011;12193;42.642;23.384;2023-10-13T17:24:10;9.47;;;4.37;;
6424;SDS011;12193;42.642;23.384;2023-10-13T17:26:39;9.37;;;4.50;;
6424;SDS011;12193;42.642;23.384;2023-10-13T17:29:11;10.70;;;4.27;;
6424;SDS011;12193;42.642;23.384;2023-10-13T17:31:40;13.37;;;3.87;;
6424;SDS011;12193;42.642;23.384;2023-10-13T17:34:14;7.03;;;3.80;;
6424;SDS011;12193;42.642;23.384;2023-10-13T17:36:44;8.83;;;3.97;;
6424;SDS011;12193;42.642;23.384;2023-10-13T17:39:14;8.80;;;3.83;;
6424;SDS011;12193;42.642;23.384;2023-10-13T17:41:44;9.60;;;4.23;;
6424;SDS011;12193;42.642;23.384;2023-10-13T17:44:16;11.23;;;5.50;;
6424;SDS011;12193;42.642;23.384;2023-10-13T17:46:47;6.60;;;3.60;;
6424;SDS011;12193;42.642;23.384;2023-10-13T17:49:16;13.73;;;4.50;;
6424;SDS011;12193;42.642;23.384;2023-10-13T17:51:46;11.73;;;4.67;;
6424;SDS011;12193;42.642;23.384;2023-10-13T17:54:16;11.27;;;4.50;;
6424;SDS011;12193;42.642;23.384;2023-10-13T17:56:46;7.60;;;4.03;;
6424;SDS011;12193;42.642;23.384;2023-10-13T17:59:18;13.47;;;4.40;;
6424;SDS011;12193;42.642;23.384;2023-10-13T18:01:48;10.80;;;4.23;;
6424;SDS011;12193;42.642;23.384;2023-10-13T18:04:17;10.30;;;4.67;;
6424;SDS011;12193;42.642;23.384;2023-10-13T18:06:46;8.30;;;3.83;;
6424;SDS011;12193;42.642;23.384;2023-10-13T18:09:18;7.20;;;3.57;;
6424;SDS011;12193;42.642;23.384;2023-10-13T18:11:48;7.20;;;3.40;;
6424;SDS011;12193;42.642;23.384;2023-10-13T18:14:20;8.53;;;3.87;;
6424;SDS011;12193;42.642;23.384;2023-10-13T18:16:50;9.47;;;3.73;;
6424;SDS011;12193;42.642;23.384;2023-10-13T18:19:21;10.53;;;4.13;;
6424;SDS011;12193;42.642;23.384;2023-10-13T18:21:53;7.83;;;3.40;;
6424;SDS011;12193;42.642;23.384;2023-10-13T18:24:24;8.47;;;3.37;;
6424;SDS011;12193;42.642;23.384;2023-10-13T18:26:55;9.37;;;3.47;;
6424;SDS011;12193;42.642;23.384;2023-10-13T18:29:29;5.77;;;3.10;;
6424;SDS011;12193;42.642;23.384;2023-10-13T18:31:58;5.70;;;3.00;;
6424;SDS011;12193;42.642;23.384;2023-10-13T18:34:28;8.83;;;3.10;;
6424;SDS011;12193;42.642;23.384;2023-10-13T18:36:57;6.00;;;2.97;;
6424;SDS011;12193;42.642;23.384;2023-10-13T18:39:27;6.37;;;3.23;;
6424;SDS011;12193;42.642;23.384;2023-10-13T18:42:02;5.63;;;3.07;;
6424;SDS011;12193;42.642;23.384;2023-10-13T18:44:34;6.10;;;3.30;;
6424;SDS011;12193;42.642;23.384;2023-10-13T18:47:03;8.57;;;3.00;;
6424;SDS011;12193;42.642;23.384;2023-10-13T18:49:34;8.63;;;3.33;;
6424;SDS011;12193;42.642;23.384;2023-10-13T18:52:04;13.00;;;3.10;;
6424;SDS011;12193;42.642;23.384;2023-10-13T18:54:36;7.47;;;2.80;;
6424;SDS011;12193;42.642;23.384;2023-10-13T18:57:06;6.00;;;3.10;;
6424;SDS011;12193;42.642;23.384;2023-10-13T18:59:42;9.57;;;2.80;;
6424;SDS011;12193;42.642;23.384;2023-10-13T19:02:12;4.77;;;2.67;;
6424;SDS011;12193;42.642;23.384;2023-10-13T19:04:42;7.17;;;2.87;;
6424;SDS011;12193;42.642;23.384;2023-10-13T19:07:11;5.60;;;2.80;;
6424;SDS011;12193;42.642;23.384;2023-10-13T19:09:40;5.13;;;2.60;;
6424;SDS011;12193;42.642;23.384;2023-10-13T19:12:10;4.87;;;3.00;;
6424;SDS011;12193;42.642;23.384;2023-10-13T19:14:42;11.57;;;2.67;;
6424;SDS011;12193;42.642;23.384;2023-10-13T19:17:11;3.93;;;2.30;;
6424;SDS011;12193;42.642;23.384;2023-10-13T19:19:42;9.30;;;2.90;;
6424;SDS011;12193;42.642;23.384;2023-10-13T19:22:11;9.67;;;2.63;;
6424;SDS011;12193;42.642;23.384;2023-10-13T19:24:41;8.00;;;2.90;;
6424;SDS011;12193;42.642;23.384;2023-10-13T19:27:11;4.43;;;2.40;;
6424;SDS011;12193;42.642;23.384;2023-10-13T19:29:43;7.27;;;3.00;;